createdAt,value
2019-04-05T00:01:10.779Z,2.90
2019-04-05T00:03:41.288Z,3.15
2019-04-05T00:06:11.540Z,3.08
2019-04-05T00:08:42.125Z,2.35
2019-04-05T00:11:12.389Z,2.12
2019-04-05T00:13:42.897Z,1.62
2019-04-05T00:16:13.227Z,2.10
2019-04-05T00:18:43.484Z,1.42
2019-04-05T00:21:13.977Z,2.10
2019-04-05T00:23:44.693Z,1.92
2019-04-05T00:26:14.945Z,1.92
2019-04-05T00:28:45.379Z,1.80
2019-04-05T00:31:15.575Z,1.67
2019-04-05T00:33:45.760Z,1.87
2019-04-05T00:36:18.151Z,3.25
2019-04-05T00:38:48.432Z,1.95
2019-04-05T00:41:19.166Z,2.58
2019-04-05T00:43:49.439Z,2.17
2019-04-05T00:46:19.609Z,2.00
2019-04-05T00:48:49.855Z,2.00
2019-04-05T00:51:20.465Z,2.08
2019-04-05T00:53:50.729Z,1.90
2019-04-05T00:56:22.072Z,1.35
2019-04-05T00:58:52.653Z,1.10
2019-04-05T01:01:24.082Z,0.75
2019-04-05T01:03:54.355Z,1.00
2019-04-05T01:06:25.811Z,0.82
2019-04-05T01:08:56.438Z,0.78
2019-04-05T01:11:26.927Z,1.17
2019-04-05T01:13:58.692Z,0.78
2019-04-05T01:16:29.994Z,0.68
2019-04-05T01:19:00.165Z,1.00
2019-04-05T01:21:35.990Z,1.75
2019-04-05T01:24:07.115Z,2.60
2019-04-05T01:26:39.444Z,2.37
2019-04-05T01:29:26.086Z,2.30
2019-04-05T01:31:56.428Z,2.52
2019-04-05T01:34:27.799Z,4.40
2019-04-05T01:36:58.441Z,2.60
2019-04-05T01:39:28.630Z,3.20
2019-04-05T01:41:59.400Z,3.22
2019-04-05T01:44:29.758Z,2.50
2019-04-05T01:47:00.111Z,3.05
2019-04-05T01:49:30.377Z,3.08
2019-04-05T01:52:00.734Z,2.37
2019-04-05T01:54:32.043Z,3.22
2019-04-05T01:57:02.340Z,3.10
2019-04-05T01:59:32.526Z,3.45
2019-04-05T02:02:02.858Z,2.77
2019-04-05T02:04:33.112Z,2.40
2019-04-05T02:07:03.500Z,2.08
2019-04-05T02:09:34.160Z,3.10
2019-04-05T02:12:04.864Z,2.20
2019-04-05T02:14:35.200Z,2.40
2019-04-05T02:17:05.697Z,1.57
2019-04-05T02:19:36.044Z,3.37
2019-04-05T02:22:06.432Z,2.30
2019-04-05T02:24:37.867Z,2.52
2019-04-05T02:27:08.356Z,2.17
2019-04-05T02:29:38.719Z,2.10
2019-04-05T02:32:09.051Z,2.15
2019-04-05T02:34:39.252Z,2.17
2019-04-05T02:37:10.088Z,2.30
2019-04-05T02:39:40.409Z,2.80
2019-04-05T02:42:12.538Z,1.95
2019-04-05T02:44:44.335Z,2.40
2019-04-05T02:47:15.626Z,2.72
2019-04-05T02:49:46.959Z,1.98
2019-04-05T02:52:19.431Z,2.30
2019-04-05T02:54:50.445Z,3.58
2019-04-05T02:57:21.693Z,2.45
2019-04-05T02:59:52.387Z,2.90
2019-04-05T03:02:23.260Z,3.17
2019-04-05T03:04:53.640Z,3.00
2019-04-05T03:07:25.709Z,3.45
2019-04-05T03:09:57.816Z,3.20
2019-04-05T03:12:28.852Z,2.70
2019-04-05T03:15:01.415Z,3.55
2019-04-05T03:17:32.583Z,2.85
2019-04-05T03:20:04.023Z,2.75
2019-04-05T03:22:36.440Z,2.95
2019-04-05T03:25:07.029Z,3.10
2019-04-05T03:27:38.969Z,2.85
2019-04-05T03:30:09.776Z,2.72
2019-04-05T03:32:40.735Z,2.80
2019-04-05T03:35:11.440Z,2.95
2019-04-05T03:37:42.189Z,3.52
2019-04-05T03:40:12.476Z,3.75
2019-04-05T03:42:44.032Z,3.60
2019-04-05T03:45:16.675Z,3.20
2019-04-05T03:47:47.165Z,3.00
2019-04-05T03:50:18.053Z,2.50
2019-04-05T03:52:48.587Z,3.50
2019-04-05T03:55:18.939Z,2.45
2019-04-05T03:57:50.882Z,3.35
2019-04-05T04:00:21.618Z,2.62
2019-04-05T04:02:52.168Z,3.50
2019-04-05T04:05:22.495Z,4.03
2019-04-05T04:07:55.389Z,3.00
2019-04-05T04:10:28.978Z,3.05
2019-04-05T04:12:59.382Z,2.90
2019-04-05T04:15:29.703Z,2.72
2019-04-05T04:18:00.375Z,2.65
2019-04-05T04:20:38.824Z,3.00
2019-04-05T04:23:10.271Z,3.27
2019-04-05T04:25:42.015Z,3.80
2019-04-05T04:28:13.008Z,3.08
2019-04-05T04:30:43.573Z,3.12
2019-04-05T04:33:13.906Z,3.20
2019-04-05T04:35:44.277Z,3.42
2019-04-05T04:38:15.560Z,3.10
2019-04-05T04:40:46.684Z,2.42
2019-04-05T04:43:17.220Z,4.33
2019-04-05T04:45:48.164Z,3.50
2019-04-05T04:48:18.816Z,3.02
2019-04-05T04:50:49.234Z,2.75
2019-04-05T04:53:19.677Z,3.40
2019-04-05T04:55:51.293Z,5.47
2019-04-05T04:58:21.548Z,4.70
2019-04-05T05:00:51.892Z,4.00
2019-04-05T05:03:22.607Z,4.15
2019-04-05T05:05:53.082Z,5.47
2019-04-05T05:08:23.857Z,7.08
2019-04-05T05:10:54.259Z,6.33
2019-04-05T05:13:24.693Z,5.08
2019-04-05T05:15:55.202Z,4.83
2019-04-05T05:18:25.887Z,5.30
2019-04-05T05:20:56.240Z,5.95
2019-04-05T05:23:26.815Z,5.22
2019-04-05T05:26:04.053Z,6.78
2019-04-05T05:28:34.394Z,5.35
2019-04-05T05:31:04.856Z,4.83
2019-04-05T05:33:35.191Z,6.28
2019-04-05T05:36:05.555Z,6.37
2019-04-05T05:38:36.033Z,5.95
2019-04-05T05:41:06.508Z,5.95
2019-04-05T05:43:37.160Z,5.55
2019-04-05T05:46:07.812Z,4.85
2019-04-05T05:48:39.039Z,4.00
2019-04-05T05:51:09.816Z,4.53
2019-04-05T05:53:40.143Z,3.80
2019-04-05T05:56:10.439Z,3.10
2019-04-05T05:58:40.737Z,3.10
2019-04-05T06:01:11.092Z,3.20
2019-04-05T06:03:41.643Z,4.37
2019-04-05T06:06:12.064Z,4.42
2019-04-05T06:08:43.713Z,4.17
2019-04-05T06:11:13.988Z,3.85
2019-04-05T06:13:45.272Z,11.68
2019-04-05T06:16:15.608Z,7.22
2019-04-05T06:18:48.470Z,5.62
2019-04-05T06:21:18.144Z,7.50
2019-04-05T06:23:48.402Z,6.03
2019-04-05T06:26:18.752Z,6.37
2019-04-05T06:28:49.079Z,36.10
2019-04-05T06:31:19.575Z,7.62
2019-04-05T06:33:49.784Z,6.83
2019-04-05T06:36:20.297Z,6.22
2019-04-05T06:38:51.062Z,6.53
2019-04-05T06:41:21.329Z,8.40
2019-04-05T06:43:51.543Z,66.95
2019-04-05T06:46:22.327Z,7.85
2019-04-05T06:48:52.506Z,8.55
2019-04-05T06:51:22.799Z,5.80
2019-04-05T06:53:52.987Z,7.50
2019-04-05T06:56:23.570Z,6.45
2019-04-05T06:58:53.912Z,7.17
2019-04-05T07:01:24.332Z,5.55
2019-04-05T07:03:55.304Z,6.50
2019-04-05T07:06:26.295Z,6.30
2019-04-05T07:08:57.129Z,6.12
2019-04-05T07:11:27.649Z,9.28
2019-04-05T07:13:57.915Z,46.18
2019-04-05T07:16:28.441Z,6.83
2019-04-05T07:19:00.848Z,11.08
2019-04-05T07:21:31.040Z,26.07
2019-04-05T07:24:01.306Z,6.53
2019-04-05T07:26:31.876Z,7.75
2019-04-05T07:29:02.484Z,7.17
2019-04-05T07:31:32.840Z,25.72
2019-04-05T07:34:03.121Z,6.87
2019-04-05T07:36:33.758Z,6.15
2019-04-05T07:39:06.792Z,13.65
2019-04-05T07:41:37.103Z,6.45
2019-04-05T07:44:07.604Z,7.87
2019-04-05T07:46:38.946Z,7.30
2019-04-05T07:49:09.108Z,7.33
2019-04-05T07:51:39.379Z,6.78
2019-04-05T07:54:09.570Z,7.87
2019-04-05T07:56:40.018Z,7.20
2019-04-05T07:59:10.534Z,6.28
2019-04-05T08:01:40.717Z,7.10
2019-04-05T08:04:17.395Z,6.37
2019-04-05T08:06:51.214Z,6.65
2019-04-05T08:09:23.585Z,5.58
2019-04-05T08:11:54.388Z,7.67
2019-04-05T08:14:26.440Z,6.20
2019-04-05T08:16:57.123Z,8.85
2019-04-05T08:19:27.695Z,7.28
2019-04-05T08:21:57.893Z,6.70
2019-04-05T08:24:28.162Z,7.75
2019-04-05T08:26:58.404Z,7.08
2019-04-05T08:29:29.018Z,8.15
2019-04-05T08:31:59.662Z,8.35
2019-04-05T08:34:30.176Z,7.05
2019-04-05T08:37:00.437Z,8.95
2019-04-05T08:39:30.721Z,6.62
2019-04-05T08:42:01.178Z,8.30
2019-04-05T08:44:31.375Z,8.40
2019-04-05T08:47:01.759Z,7.28
2019-04-05T08:49:32.312Z,7.08
2019-04-05T08:52:03.652Z,8.00
2019-04-05T08:54:36.605Z,8.00
2019-04-05T08:57:06.327Z,6.55
2019-04-05T08:59:37.295Z,6.80
2019-04-05T09:02:08.190Z,7.15
2019-04-05T09:04:38.762Z,7.55
2019-04-05T09:07:09.023Z,7.95
2019-04-05T09:09:39.221Z,7.05
2019-04-05T09:12:09.412Z,7.17
2019-04-05T09:14:42.882Z,8.03
2019-04-05T09:17:13.587Z,8.25
2019-04-05T09:19:43.804Z,6.95
2019-04-05T09:22:14.084Z,6.42
2019-04-05T09:24:44.391Z,7.78
2019-04-05T09:27:14.597Z,8.00
2019-04-05T09:29:44.948Z,6.40
2019-04-05T09:32:15.378Z,5.60
2019-04-05T09:34:45.753Z,5.67
2019-04-05T09:37:16.116Z,7.22
2019-04-05T09:39:46.307Z,6.95
2019-04-05T09:42:17.055Z,6.22
2019-04-05T09:44:47.315Z,6.85
2019-04-05T09:47:17.518Z,6.62
2019-04-05T09:49:47.711Z,5.92
2019-04-05T09:52:17.999Z,6.67
2019-04-05T09:54:48.189Z,7.42
2019-04-05T09:57:18.751Z,7.62
2019-04-05T09:59:49.012Z,8.40
2019-04-05T10:02:19.375Z,6.70
2019-04-05T10:04:49.666Z,7.03
2019-04-05T10:07:19.866Z,9.23
2019-04-05T10:09:50.520Z,6.17
2019-04-05T10:12:20.920Z,7.72
2019-04-05T10:14:51.529Z,7.72
2019-04-05T10:17:21.745Z,6.58
2019-04-05T10:19:51.923Z,6.58
2019-04-05T10:22:27.714Z,6.42
2019-04-05T10:24:59.084Z,6.87
2019-04-05T10:27:29.665Z,7.65
2019-04-05T10:30:00.144Z,7.05
2019-04-05T10:32:31.061Z,9.53
2019-04-05T10:35:01.249Z,6.70
2019-04-05T10:37:31.585Z,11.38
2019-04-05T10:40:01.996Z,6.87
2019-04-05T10:42:34.482Z,6.83
2019-04-05T10:45:09.988Z,6.35
2019-04-05T10:47:47.980Z,9.70
2019-04-05T10:50:27.877Z,8.53
2019-04-05T10:53:07.538Z,8.55
2019-04-05T10:55:45.667Z,7.45
2019-04-05T10:58:18.236Z,8.75
2019-04-05T11:00:48.910Z,8.75
2019-04-05T11:03:19.148Z,7.85
2019-04-05T11:05:50.413Z,8.10
2019-04-05T11:08:20.693Z,9.85
2019-04-05T11:11:02.620Z,8.35
2019-04-05T11:13:33.141Z,8.25
2019-04-05T11:16:04.116Z,9.65
2019-04-05T11:18:35.084Z,8.93
2019-04-05T11:21:06.547Z,10.38
2019-04-05T11:23:37.885Z,10.45
2019-04-05T11:26:08.228Z,10.58
2019-04-05T11:28:38.473Z,12.53
2019-04-05T11:31:08.751Z,10.05
2019-04-05T11:33:39.094Z,11.35
2019-04-05T11:36:11.628Z,10.55
2019-04-05T11:38:42.311Z,9.73
2019-04-05T11:41:13.442Z,11.43
2019-04-05T11:43:46.422Z,10.90
2019-04-05T11:46:18.266Z,9.75
2019-04-05T11:48:50.031Z,11.48
2019-04-05T11:51:20.552Z,13.30
2019-04-05T11:53:50.776Z,10.98
2019-04-05T11:56:21.075Z,11.65
2019-04-05T11:58:51.492Z,10.90
2019-04-05T12:01:27.928Z,11.20
2019-04-05T12:03:58.189Z,13.13
2019-04-05T12:06:28.459Z,11.25
2019-04-05T12:08:59.319Z,11.70
2019-04-05T12:11:30.924Z,11.18
2019-04-05T12:14:01.191Z,10.25
2019-04-05T12:16:32.152Z,11.05
2019-04-05T12:19:04.511Z,12.40
2019-04-05T12:21:34.774Z,16.45
2019-04-05T12:24:06.727Z,15.72
2019-04-05T12:26:37.006Z,14.35
2019-04-05T12:29:07.268Z,13.10
2019-04-05T12:31:37.484Z,23.47
2019-04-05T12:34:07.889Z,15.58
2019-04-05T12:36:38.130Z,16.50
2019-04-05T12:39:08.932Z,23.35
2019-04-05T12:41:40.936Z,16.42
2019-04-05T12:44:14.350Z,14.63
2019-04-05T12:46:45.651Z,15.72
2019-04-05T12:49:15.805Z,12.28
2019-04-05T12:51:46.250Z,11.80
2019-04-05T12:54:16.796Z,13.80
2019-04-05T12:56:47.018Z,16.20
2019-04-05T12:59:17.356Z,16.17
2019-04-05T13:01:47.635Z,13.70
2019-04-05T13:04:20.261Z,13.25
2019-04-05T13:06:53.624Z,13.60
2019-04-05T13:09:24.692Z,17.32
2019-04-05T13:11:58.404Z,15.40
2019-04-05T13:14:28.632Z,15.30
2019-04-05T13:17:01.806Z,16.30
2019-04-05T13:19:31.320Z,15.40
2019-04-05T13:22:02.776Z,16.23
2019-04-05T13:24:39.598Z,15.83
2019-04-05T13:27:11.521Z,16.45
2019-04-05T13:33:39.365Z,17.07
2019-04-05T13:36:09.736Z,14.25
2019-04-05T13:39:29.710Z,16.55
2019-04-05T13:45:42.927Z,13.72
2019-04-05T13:48:13.211Z,13.70
2019-04-05T13:50:43.527Z,15.35
2019-04-05T13:53:14.072Z,15.43
2019-04-05T13:55:47.521Z,16.23
2019-04-05T14:02:06.033Z,14.75
2019-04-05T14:04:29.817Z,14.85
2019-04-05T14:07:00.263Z,15.28
2019-04-05T14:09:31.693Z,14.28
2019-04-05T14:12:02.273Z,13.78
2019-04-05T14:14:32.612Z,15.70
2019-04-05T14:17:02.823Z,17.00
2019-04-05T14:19:33.721Z,13.03
2019-04-05T14:22:08.844Z,14.98
2019-04-05T14:24:45.661Z,14.18
2019-04-05T14:28:15.879Z,15.13
2019-04-05T14:31:02.180Z,15.10
2019-04-05T14:34:40.993Z,14.03
2019-04-05T14:43:25.253Z,13.15
2019-04-05T14:46:58.914Z,14.73
2019-04-05T14:49:30.310Z,14.28
2019-04-05T14:52:31.856Z,14.00
2019-04-05T14:55:43.580Z,14.58
2019-04-05T14:58:25.672Z,16.50
2019-04-05T15:00:57.798Z,16.27
2019-04-05T15:03:30.909Z,16.32
2019-04-05T15:06:01.618Z,17.90
2019-04-05T15:08:41.683Z,19.02
2019-04-05T15:19:46.020Z,16.30
2019-04-05T15:26:26.499Z,18.50
2019-04-05T15:28:57.794Z,19.65
2019-04-05T15:31:59.658Z,17.10
2019-04-05T15:34:40.254Z,15.35
2019-04-05T15:37:12.734Z,15.45
2019-04-05T15:39:44.511Z,16.57
2019-04-05T15:42:18.710Z,17.75
2019-04-05T15:44:49.434Z,18.35
2019-04-05T15:47:23.161Z,20.25
2019-04-05T15:49:52.156Z,20.68
2019-04-05T15:52:23.283Z,20.25
2019-04-05T15:54:53.579Z,17.67
2019-04-05T15:57:23.852Z,16.42
2019-04-05T15:59:54.325Z,17.15
2019-04-05T16:02:24.643Z,17.00
2019-04-05T16:04:55.120Z,18.70
2019-04-05T16:07:25.400Z,18.23
2019-04-05T16:09:55.809Z,20.20
2019-04-05T16:12:26.196Z,22.40
2019-04-05T16:14:56.423Z,18.52
2019-04-05T16:17:26.795Z,21.48
2019-04-05T16:19:57.262Z,19.73
2019-04-05T16:22:31.472Z,18.82
2019-04-05T16:24:59.721Z,20.62
2019-04-05T16:27:39.379Z,20.82
2019-04-05T16:30:11.770Z,21.50
2019-04-05T16:32:42.148Z,22.13
2019-04-05T16:35:14.609Z,21.33
2019-04-05T16:37:44.891Z,24.55
2019-04-05T16:40:15.880Z,22.55
2019-04-05T16:42:47.615Z,21.62
2019-04-05T16:45:18.048Z,22.50
2019-04-05T16:47:48.292Z,21.35
2019-04-05T16:50:21.273Z,23.67
2019-04-05T16:52:50.819Z,22.87
2019-04-05T16:55:21.056Z,21.17
2019-04-05T16:57:51.610Z,23.57
2019-04-05T17:00:22.159Z,23.70
2019-04-05T17:02:52.599Z,22.50
2019-04-05T17:05:23.013Z,22.22
2019-04-05T17:07:53.292Z,24.27
2019-04-05T17:10:23.491Z,22.73
2019-04-05T17:12:53.947Z,24.37
2019-04-05T17:15:24.264Z,25.60
2019-04-05T17:17:56.208Z,22.93
2019-04-05T17:20:26.600Z,22.30
2019-04-05T17:22:58.425Z,22.30
2019-04-05T17:25:28.803Z,23.42
2019-04-05T17:27:59.113Z,22.15
2019-04-05T17:30:29.407Z,23.22
2019-04-05T17:32:59.780Z,21.97
2019-04-05T17:35:30.017Z,23.45
2019-04-05T17:38:00.340Z,21.60
2019-04-05T17:40:30.658Z,23.27
2019-04-05T17:43:00.901Z,23.27
2019-04-05T17:45:31.134Z,23.98
2019-04-05T17:48:02.544Z,23.47
2019-04-05T17:50:34.298Z,22.52
2019-04-05T17:53:12.608Z,22.65
2019-04-05T17:55:37.779Z,24.15
2019-04-05T17:58:09.037Z,24.18
2019-04-05T18:00:39.531Z,26.60
2019-04-05T18:03:09.927Z,23.75
2019-04-05T18:05:40.330Z,26.15
2019-04-05T18:08:10.755Z,23.73
2019-04-05T18:10:40.953Z,26.97
2019-04-05T18:13:12.073Z,27.15
2019-04-05T18:15:52.702Z,28.45
2019-04-05T18:18:23.420Z,26.45
2019-04-05T18:20:53.819Z,28.75
2019-04-05T18:23:25.610Z,26.65
2019-04-05T18:25:56.293Z,25.35
2019-04-05T18:28:27.641Z,27.73
2019-04-05T18:31:00.344Z,27.85
2019-04-05T18:33:30.768Z,27.25
2019-04-05T18:36:01.656Z,26.80
2019-04-05T18:38:31.975Z,29.05
2019-04-05T18:41:04.880Z,25.35
2019-04-05T18:43:35.397Z,27.82
2019-04-05T18:46:05.817Z,26.27
2019-04-05T18:48:36.147Z,27.02
2019-04-05T18:51:07.583Z,30.30
2019-04-05T18:53:38.333Z,25.17
2019-04-05T18:56:08.783Z,26.05
2019-04-05T18:58:39.228Z,28.12
2019-04-05T19:01:09.746Z,25.82
2019-04-05T19:03:40.147Z,24.50
2019-04-05T19:06:10.544Z,25.88
2019-04-05T19:08:40.891Z,25.92
2019-04-05T19:11:11.099Z,22.82
2019-04-05T19:13:41.460Z,32.78
2019-04-05T19:16:11.783Z,34.92
2019-04-05T19:18:42.066Z,30.80
2019-04-05T19:21:12.703Z,27.93
2019-04-05T19:23:50.643Z,29.82
2019-04-05T19:26:16.677Z,25.48
2019-04-05T19:28:47.216Z,21.90
2019-04-05T19:49:07.462Z,30.62
2019-04-05T19:52:30.538Z,34.58
2019-04-05T20:16:20.213Z,48.17
2019-04-05T20:18:50.709Z,42.70
2019-04-05T20:21:21.143Z,41.83
2019-04-05T20:23:51.848Z,35.15
2019-04-05T20:26:23.194Z,41.30
2019-04-05T20:28:53.407Z,39.27
2019-04-05T20:31:23.727Z,32.70
2019-04-05T20:33:54.101Z,27.98
2019-04-05T20:36:24.730Z,29.30
2019-04-05T20:38:55.028Z,30.25
2019-04-05T20:41:25.372Z,32.20
2019-04-05T20:43:55.795Z,27.48
2019-04-05T20:46:26.297Z,27.13
2019-04-05T20:48:57.049Z,28.32
2019-04-05T20:51:27.558Z,26.75
2019-04-05T20:53:57.900Z,30.85
2019-04-05T20:56:28.456Z,34.08
2019-04-05T20:58:58.722Z,31.85
2019-04-05T21:01:29.311Z,41.83
2019-04-05T21:03:59.503Z,39.27
2019-04-05T21:06:29.759Z,37.75
2019-04-05T21:09:00.121Z,34.60
2019-04-05T21:11:30.402Z,41.08
2019-04-05T21:14:00.693Z,30.17
2019-04-05T21:16:30.944Z,36.23
2019-04-05T21:19:01.228Z,30.43
2019-04-05T21:21:31.767Z,33.10
2019-04-05T21:24:01.971Z,27.65
2019-04-05T21:26:32.195Z,28.50
2019-04-05T21:29:03.048Z,25.02
2019-04-05T21:31:33.493Z,24.02
2019-04-05T21:34:03.912Z,22.87
2019-04-05T21:36:34.254Z,28.92
2019-04-05T21:39:06.443Z,23.67
2019-04-05T21:41:37.134Z,23.70
2019-04-05T21:44:07.450Z,26.45
2019-04-05T21:46:37.928Z,23.35
2019-04-05T21:49:08.166Z,24.72
2019-04-05T21:51:39.443Z,26.35
2019-04-05T21:54:09.672Z,30.82
2019-04-05T21:56:40.184Z,33.95
2019-04-05T21:59:10.671Z,24.35
2019-04-05T22:01:41.101Z,35.50
2019-04-05T22:04:11.483Z,33.73
2019-04-05T22:06:41.702Z,26.82
2019-04-05T22:09:12.108Z,31.90
2019-04-05T22:11:42.395Z,24.15
2019-04-05T22:14:12.614Z,29.02
2019-04-05T22:16:42.879Z,30.72
2019-04-05T22:19:14.072Z,28.20
2019-04-05T22:21:44.293Z,26.82
2019-04-05T22:24:14.572Z,27.65
2019-04-05T22:26:44.803Z,25.00
2019-04-05T22:29:15.263Z,25.50
2019-04-05T22:31:45.543Z,28.07
2019-04-05T22:34:15.831Z,28.75
2019-04-05T22:36:46.184Z,30.05
2019-04-05T22:39:16.548Z,28.40
2019-04-05T22:41:46.748Z,26.48
2019-04-05T22:44:17.299Z,23.83
2019-04-05T22:46:47.501Z,22.52
2019-04-05T22:49:17.711Z,28.05
2019-04-05T22:51:47.923Z,26.60
2019-04-05T22:54:18.852Z,23.62
2019-04-05T22:56:49.045Z,26.07
2019-04-05T22:59:19.857Z,25.00
2019-04-05T23:01:50.354Z,26.65
2019-04-05T23:04:20.612Z,21.40
2019-04-05T23:06:50.933Z,21.05
2019-04-05T23:09:21.743Z,24.45
2019-04-05T23:11:52.270Z,23.18
2019-04-05T23:14:22.492Z,24.23
2019-04-05T23:16:52.838Z,25.75
2019-04-05T23:19:23.157Z,25.27
2019-04-05T23:21:53.387Z,28.25
2019-04-05T23:24:23.620Z,29.35
2019-04-05T23:26:53.863Z,27.52
2019-04-05T23:29:24.168Z,29.98
2019-04-05T23:31:54.462Z,34.78
2019-04-05T23:34:25.094Z,28.57
2019-04-05T23:36:57.681Z,28.35
2019-04-05T23:39:27.916Z,26.33
2019-04-05T23:41:58.436Z,27.90
2019-04-05T23:44:28.646Z,27.58
2019-04-05T23:46:59.123Z,28.85
2019-04-05T23:49:29.404Z,26.37
2019-04-05T23:51:59.606Z,25.82
2019-04-05T23:54:29.800Z,27.45
2019-04-05T23:57:00.029Z,27.00
2019-04-05T23:59:30.584Z,26.05
